Gallup Municipal Airport
KGUP : now visible

Airfield :











YOU CAN JOIN US ON...

 
LOGIN :

Register | Disclaimer

   EN    FR    IT 

 









Legend :    VFR   Marginal VFR   IFR   Intensive IFR   Very Intensive IFR
Visi :
Ceiling :
>= 8 km
>= 3000ft
5 to 8 km
1000 to 3000 ft
1500m to 5 km
500 to 1000 ft
800 to 1500m
200 to 500 ft
< 800m
< 200 ft
Symbols :   Thunderstorms  Fog  Heavy snow  Heavy precipitations  Wind > 20 kt






- Airport Elevation : 6472 ft
- IATA code : GUP


KGUP - Gallup Municipal

CURRENT METAR :
  • 140553Z AUTO 06005KT 10SM CLR M04/M14 A3020 RMK AO2 SLP208 T10391139 10139 21039 51012

EXPIRED METARs :
  • 140453Z AUTO 08004KT 10SM CLR M01/M13 A3019 RMK AO2 SLP214 T10061128
  • 140353Z AUTO 06006KT 10SM CLR M02/M14 A3018 RMK AO2 SLP234 T10171139

TAF KGUP
Valid from the 14 at 06:00 until the 15 at 06:00 UTC


140520Z 1406/1506 VRB06KT P6SM FEW250
FM142100 32006KT P6SM FEW250



MET'MAP, your aeronautical weather chart ! - Copyright ORBIFLY December 2007 - Disclaimer

ORBIFLY MET'MAP TEAM :

Programming & Development : Alexandra Zaïnal
Concept & Development : Baudouin d'Aumeries
Co-Development & Prog : Marc-Olivier Méhu
Technical & hardware support : Manuel Goepfert

Contact : metmap@orbifly.com




SOURCES & CREDITS :

   NOAA       Earth
Advisory